Terminal Aerodrome Forecast
Issued by NWS Shreveport, LA

Home | Current Version | Previous Version | Text Only | Print | Product List | Glossary On
Versions: 1 2 3 4 5 6 7 8 9 10 11 12 13 14 15 16 17 18
000
FTUS44 KSHV 281737
TAFLFK
TAF
KLFK 281737Z 2818/2918 14012KT P6SM SCT025 BKN040
      TEMPO 2818/2819 14006KT BKN020
     FM282100 15012G20KT P6SM SCT050
     FM290500 15010KT P6SM BKN020
      TEMPO 2909/2913 3SM BR OVC010
     FM291600 15014G22KT P6SM SCT030=

USA.gov is the U.S. government's official web portal to all federal, state and local government web resources and services.